Time;durP1;ratioP1;P1;durP2;ratioP2;P2;SDS_P1;SDS_P2;PMS_P1;PMS_P2;Temp;Humidity;BMP_temperature;BMP_pressure;BME280_temperature;BME280_humidity;BME280_pressure;Samples;Min_cycle;Max_cycle;Signal;HPM_P1;HPM_P2
2023/10/25 00:00:59;;;;;;;16.55;4.95;;;;;;;;;;5014387;28;20113;-61
2023/10/25 00:03:24;;;;;;;16.45;5.15;;;;;;;;;;5014444;28;20477;-61
2023/10/25 00:05:50;;;;;;;11.18;4.80;;;;;;;;;;5014143;28;20469;-61
2023/10/25 00:08:15;;;;;;;12.93;4.45;;;;;;;;;;5013975;28;20033;-61
2023/10/25 00:10:41;;;;;;;10.93;4.43;;;;;;;;;;5014080;28;20029;-61
2023/10/25 00:13:06;;;;;;;13.93;4.40;;;;;;;;;;5014359;28;20488;-61
2023/10/25 00:15:32;;;;;;;9.32;4.63;;;;;;;;;;5014582;28;20037;-61
2023/10/25 00:17:57;;;;;;;9.55;4.20;;;;;;;;;;5013730;28;20050;-62
2023/10/25 00:20:22;;;;;;;12.38;3.95;;;;;;;;;;5014078;28;20038;-61
2023/10/25 00:22:48;;;;;;;9.55;4.35;;;;;;;;;;5014668;28;20030;-61
2023/10/25 00:25:13;;;;;;;18.27;4.50;;;;;;;;;;5013922;28;20036;-61
2023/10/25 00:27:39;;;;;;;13.48;4.13;;;;;;;;;;5014457;28;20028;-61
2023/10/25 00:30:04;;;;;;;10.18;3.88;;;;;;;;;;5014362;28;20034;-61
2023/10/25 00:32:30;;;;;;;13.80;4.50;;;;;;;;;;4996385;28;20461;-61
2023/10/25 00:34:55;;;;;;;10.60;3.55;;;;;;;;;;4996713;28;20129;-61
2023/10/25 00:37:21;;;;;;;17.10;4.13;;;;;;;;;;4996764;28;20061;-62
2023/10/25 00:39:46;;;;;;;11.30;4.55;;;;;;;;;;5014358;28;20034;-61
2023/10/25 00:42:12;;;;;;;11.43;4.25;;;;;;;;;;5013940;28;20038;-63
2023/10/25 00:44:37;;;;;;;10.73;4.63;;;;;;;;;;5014325;28;20114;-61
2023/10/25 00:47:03;;;;;;;11.68;3.90;;;;;;;;;;5014018;28;20030;-62
2023/10/25 00:49:36;;;;;;;13.23;3.78;;;;;;;;;;4980676;28;20125;-61
2023/10/25 00:52:02;;;;;;;14.27;4.07;;;;;;;;;;5005277;23;20092;-61
2023/10/25 00:54:28;;;;;;;15.45;4.00;;;;;;;;;;5043234;23;20073;-62
2023/10/25 00:56:56;;;;;;;10.88;4.10;;;;;;;;;;5029519;23;20058;-60
2023/10/25 00:59:22;;;;;;;10.15;3.88;;;;;;;;;;5070199;22;20526;-62
2023/10/25 01:01:49;;;;;;;12.98;3.50;;;;;;;;;;5063636;23;20053;-62
2023/10/25 01:04:16;;;;;;;10.65;3.80;;;;;;;;;;5044493;23;20137;-62
2023/10/25 01:06:42;;;;;;;11.85;3.65;;;;;;;;;;5031980;28;20047;-62
2023/10/25 01:09:08;;;;;;;10.98;3.65;;;;;;;;;;5033777;28;20029;-68
2023/10/25 01:11:33;;;;;;;9.70;3.28;;;;;;;;;;5031922;28;20396;-68
2023/10/25 01:13:58;;;;;;;6.88;2.90;;;;;;;;;;5015536;28;20025;-68
2023/10/25 01:16:24;;;;;;;13.35;3.33;;;;;;;;;;5033133;28;20499;-67
2023/10/25 01:18:49;;;;;;;10.50;3.38;;;;;;;;;;5033917;28;20510;-67
2023/10/25 01:21:16;;;;;;;7.97;3.20;;;;;;;;;;5037153;28;20103;-68
2023/10/25 01:23:41;;;;;;;15.13;3.38;;;;;;;;;;5036005;28;20025;-68
2023/10/25 01:26:06;;;;;;;7.10;2.90;;;;;;;;;;5035428;28;20472;-67
2023/10/25 01:28:32;;;;;;;9.98;2.97;;;;;;;;;;5034217;28;20703;-67
2023/10/25 01:30:57;;;;;;;12.95;2.97;;;;;;;;;;5035511;28;20083;-67
2023/10/25 01:33:23;;;;;;;9.02;2.80;;;;;;;;;;5036545;28;20037;-68
2023/10/25 01:35:49;;;;;;;8.00;2.60;;;;;;;;;;5036263;28;20029;-69
2023/10/25 01:38:14;;;;;;;9.82;2.88;;;;;;;;;;5036527;28;20034;-68
2023/10/25 01:40:40;;;;;;;7.45;2.95;;;;;;;;;;5036854;28;20025;-67
2023/10/25 01:43:05;;;;;;;8.75;2.78;;;;;;;;;;5036863;28;20033;-67
2023/10/25 01:45:30;;;;;;;9.98;3.30;;;;;;;;;;5037128;28;20013;-67
2023/10/25 01:47:56;;;;;;;6.25;2.60;;;;;;;;;;5036486;28;20021;-66
2023/10/25 01:50:21;;;;;;;8.70;3.28;;;;;;;;;;5036602;28;20488;-66
2023/10/25 01:52:47;;;;;;;8.70;2.75;;;;;;;;;;5036662;28;20048;-67
2023/10/25 01:55:13;;;;;;;10.10;3.05;;;;;;;;;;5036358;28;20029;-67
2023/10/25 01:57:39;;;;;;;10.07;3.08;;;;;;;;;;5035056;28;20036;-66
2023/10/25 02:00:06;;;;;;;7.93;3.55;;;;;;;;;;5034937;28;20106;-66
2023/10/25 02:02:38;;;;;;;6.55;3.35;;;;;;;;;;5036522;28;20116;-66
2023/10/25 02:05:03;;;;;;;9.02;3.47;;;;;;;;;;5034631;28;20069;-68
2023/10/25 02:07:29;;;;;;;12.20;3.40;;;;;;;;;;5034790;28;20083;-68
2023/10/25 02:09:54;;;;;;;7.97;3.33;;;;;;;;;;5034838;28;20116;-68
2023/10/25 02:12:20;;;;;;;7.63;3.20;;;;;;;;;;5036338;28;20021;-68
2023/10/25 02:14:45;;;;;;;5.05;2.58;;;;;;;;;;5034720;28;20026;-66
2023/10/25 02:17:11;;;;;;;8.13;2.53;;;;;;;;;;5034391;28;20120;-68
2023/10/25 02:19:36;;;;;;;7.45;2.55;;;;;;;;;;5035885;28;20038;-67
2023/10/25 02:22:02;;;;;;;8.63;2.80;;;;;;;;;;5036363;28;20056;-68
2023/10/25 02:24:27;;;;;;;6.10;2.20;;;;;;;;;;5036067;28;20419;-67
2023/10/25 02:26:53;;;;;;;5.85;2.50;;;;;;;;;;5036051;28;20058;-67
2023/10/25 02:29:18;;;;;;;8.02;2.92;;;;;;;;;;5034128;28;20025;-68
2023/10/25 02:31:44;;;;;;;7.07;2.53;;;;;;;;;;5017871;28;20026;-68
2023/10/25 02:34:09;;;;;;;5.63;2.45;;;;;;;;;;5017925;28;20061;-68
2023/10/25 02:36:35;;;;;;;5.78;2.45;;;;;;;;;;5034099;28;20055;-68
2023/10/25 02:39:01;;;;;;;8.25;2.50;;;;;;;;;;5035338;28;20042;-68
2023/10/25 02:41:26;;;;;;;6.82;3.08;;;;;;;;;;5035445;28;20045;-68
2023/10/25 02:43:53;;;;;;;3.25;2.08;;;;;;;;;;5035985;28;20028;-68
2023/10/25 02:46:19;;;;;;;5.38;2.22;;;;;;;;;;5035925;28;20084;-68
2023/10/25 02:48:44;;;;;;;5.22;2.05;;;;;;;;;;5034065;28;20030;-68
2023/10/25 02:51:10;;;;;;;7.28;2.10;;;;;;;;;;5035547;28;20113;-68
2023/10/25 02:53:35;;;;;;;4.80;2.47;;;;;;;;;;5033950;28;20095;-68
2023/10/25 02:56:02;;;;;;;5.68;2.40;;;;;;;;;;5033914;28;20029;-68
2023/10/25 02:58:28;;;;;;;7.80;3.17;;;;;;;;;;5033872;28;20033;-68
2023/10/25 03:00:54;;;;;;;6.80;2.97;;;;;;;;;;5033774;28;20037;-69
2023/10/25 03:03:19;;;;;;;4.97;2.53;;;;;;;;;;5034869;28;20393;-69
2023/10/25 03:05:44;;;;;;;6.30;2.97;;;;;;;;;;5033717;28;20495;-67
2023/10/25 03:08:10;;;;;;;5.95;2.80;;;;;;;;;;5034983;28;20498;-67
2023/10/25 03:10:35;;;;;;;7.40;2.55;;;;;;;;;;5033424;28;20031;-68
2023/10/25 03:13:02;;;;;;;6.88;2.80;;;;;;;;;;5035113;28;20033;-67
2023/10/25 03:15:28;;;;;;;4.70;2.70;;;;;;;;;;5017106;28;20033;-69
2023/10/25 03:17:54;;;;;;;6.22;2.90;;;;;;;;;;5033267;28;20494;-69
2023/10/25 03:20:20;;;;;;;5.03;3.00;;;;;;;;;;5034839;28;20029;-68
2023/10/25 03:22:45;;;;;;;3.50;2.70;;;;;;;;;;5034831;28;20429;-67
2023/10/25 03:25:10;;;;;;;5.15;2.83;;;;;;;;;;5033372;28;20468;-66
2023/10/25 03:27:37;;;;;;;4.97;3.38;;;;;;;;;;5034560;28;20542;-67
2023/10/25 03:30:03;;;;;;;7.38;3.75;;;;;;;;;;5033335;28;20025;-67
2023/10/25 03:32:28;;;;;;;6.35;4.20;;;;;;;;;;5035104;28;20037;-68
2023/10/25 03:34:54;;;;;;;6.57;4.53;;;;;;;;;;5034447;28;20017;-68
2023/10/25 03:37:19;;;;;;;5.78;4.47;;;;;;;;;;5034440;28;20092;-68
2023/10/25 03:39:45;;;;;;;8.10;6.28;;;;;;;;;;5033133;28;20025;-69
2023/10/25 03:42:10;;;;;;;11.50;6.70;;;;;;;;;;5033537;28;20031;-69
2023/10/25 03:44:35;;;;;;;7.43;6.60;;;;;;;;;;5034304;28;20443;-68
2023/10/25 03:47:01;;;;;;;10.23;7.90;;;;;;;;;;5031617;28;20404;-69
2023/10/25 03:49:27;;;;;;;11.25;8.20;;;;;;;;;;5033017;28;20087;-68
2023/10/25 03:51:53;;;;;;;9.40;8.07;;;;;;;;;;5032165;28;20033;-69
2023/10/25 03:54:18;;;;;;;11.13;8.75;;;;;;;;;;5032839;28;20021;-68
2023/10/25 03:56:43;;;;;;;12.40;9.27;;;;;;;;;;5033020;28;20041;-69
2023/10/25 03:59:09;;;;;;;11.48;9.57;;;;;;;;;;5034167;28;20096;-69
2023/10/25 04:01:35;;;;;;;10.48;9.38;;;;;;;;;;5033927;28;20487;-70
2023/10/25 04:04:00;;;;;;;13.88;9.63;;;;;;;;;;5033824;28;20084;-69
2023/10/25 04:06:25;;;;;;;12.82;10.35;;;;;;;;;;5033560;28;20022;-69
2023/10/25 04:08:51;;;;;;;12.82;10.07;;;;;;;;;;5034269;28;20033;-69
2023/10/25 04:11:16;;;;;;;15.52;10.50;;;;;;;;;;5033725;28;20017;-68
2023/10/25 04:13:43;;;;;;;12.20;10.45;;;;;;;;;;5033873;28;20163;-67
2023/10/25 04:16:09;;;;;;;14.32;11.30;;;;;;;;;;5034232;28;20042;-68
2023/10/25 04:18:35;;;;;;;15.30;10.95;;;;;;;;;;5015674;28;20036;-67
2023/10/25 04:21:01;;;;;;;12.02;9.55;;;;;;;;;;5033833;28;20480;-69
2023/10/25 04:23:28;;;;;;;8.60;6.80;;;;;;;;;;5033802;28;20044;-68
2023/10/25 04:26:10;;;;;;;9.30;8.43;;;;;;;;;;5034098;28;20021;-67
2023/10/25 04:28:39;;;;;;;8.45;7.60;;;;;;;;;;5033339;28;20034;-68
2023/10/25 04:31:06;;;;;;;11.23;7.90;;;;;;;;;;5033917;28;20528;-69
2023/10/25 04:33:31;;;;;;;7.90;7.20;;;;;;;;;;5033472;28;20033;-67
2023/10/25 04:35:57;;;;;;;9.15;7.35;;;;;;;;;;5033517;28;20077;-68
2023/10/25 04:38:25;;;;;;;10.35;7.43;;;;;;;;;;5032939;28;20079;-69
2023/10/25 04:40:51;;;;;;;8.02;7.15;;;;;;;;;;5032793;28;20083;-69
2023/10/25 04:43:17;;;;;;;8.38;6.60;;;;;;;;;;5033826;28;20014;-68
2023/10/25 04:45:42;;;;;;;9.95;7.18;;;;;;;;;;5033293;28;20420;-68
2023/10/25 04:48:08;;;;;;;7.88;7.18;;;;;;;;;;5033701;28;20016;-68
2023/10/25 04:50:35;;;;;;;8.90;6.45;;;;;;;;;;5033420;28;20061;-65
2023/10/25 04:53:02;;;;;;;6.75;6.15;;;;;;;;;;5034722;28;20041;-70
2023/10/25 04:55:29;;;;;;;6.32;5.78;;;;;;;;;;5053079;28;20468;-68
2023/10/25 04:57:55;;;;;;;6.55;5.90;;;;;;;;;;5037672;28;20052;-67
2023/10/25 05:00:20;;;;;;;6.60;6.10;;;;;;;;;;5037511;28;20388;-69
2023/10/25 05:02:46;;;;;;;5.70;5.10;;;;;;;;;;5019681;28;20040;-69
2023/10/25 05:05:11;;;;;;;5.82;5.30;;;;;;;;;;5037065;28;20511;-69
2023/10/25 05:07:37;;;;;;;6.30;5.78;;;;;;;;;;5003855;28;20109;-69
2023/10/25 05:10:03;;;;;;;5.32;4.90;;;;;;;;;;5037397;28;20028;-69
2023/10/25 05:12:38;;;;;;;6.40;4.97;;;;;;;;;;5037355;28;20089;-69
2023/10/25 05:15:05;;;;;;;6.93;6.05;;;;;;;;;;5037325;28;20091;-69
2023/10/25 05:17:30;;;;;;;5.32;4.95;;;;;;;;;;5037177;28;20028;-69
2023/10/25 05:19:56;;;;;;;5.13;4.65;;;;;;;;;;5037254;28;20033;-69
2023/10/25 05:22:23;;;;;;;6.25;5.32;;;;;;;;;;5019550;28;20034;-69
2023/10/25 05:24:49;;;;;;;6.63;6.03;;;;;;;;;;5037471;28;20464;-69
2023/10/25 05:27:14;;;;;;;6.13;5.55;;;;;;;;;;5019050;28;20121;-69
2023/10/25 05:29:40;;;;;;;7.63;5.72;;;;;;;;;;5037119;28;20364;-69
2023/10/25 05:32:06;;;;;;;7.78;5.20;;;;;;;;;;5036343;28;20108;-69
2023/10/25 05:34:32;;;;;;;5.20;4.68;;;;;;;;;;5018616;28;20109;-69
2023/10/25 05:36:57;;;;;;;5.63;4.47;;;;;;;;;;5035883;28;20430;-69
2023/10/25 05:39:23;;;;;;;9.18;6.47;;;;;;;;;;5037245;28;20368;-69
2023/10/25 05:41:49;;;;;;;9.00;8.07;;;;;;;;;;5036507;28;20070;-68
2023/10/25 05:44:15;;;;;;;8.43;7.60;;;;;;;;;;5034269;28;20050;-69
2023/10/25 05:46:41;;;;;;;9.50;8.05;;;;;;;;;;5033582;28;20041;-69
2023/10/25 05:49:06;;;;;;;10.13;9.02;;;;;;;;;;5034172;28;20025;-69
2023/10/25 05:51:32;;;;;;;9.10;7.68;;;;;;;;;;5034802;28;20037;-69
2023/10/25 05:53:58;;;;;;;11.68;8.68;;;;;;;;;;5033780;28;20060;-69
2023/10/25 05:56:26;;;;;;;11.73;8.38;;;;;;;;;;5016755;28;20105;-69
2023/10/25 05:58:52;;;;;;;10.65;8.90;;;;;;;;;;5034722;28;20033;-69
2023/10/25 06:01:18;;;;;;;12.77;9.85;;;;;;;;;;5035663;28;20075;-68
2023/10/25 06:03:45;;;;;;;10.57;8.25;;;;;;;;;;5035822;28;20580;-68
2023/10/25 06:06:12;;;;;;;14.80;10.07;;;;;;;;;;5035223;28;20029;-69
2023/10/25 06:08:38;;;;;;;17.65;11.10;;;;;;;;;;5018715;28;20084;-68
2023/10/25 06:11:04;;;;;;;12.52;10.20;;;;;;;;;;5036584;28;20029;-68
2023/10/25 06:13:29;;;;;;;6.78;4.40;;;;;;;;;;5036279;28;20029;-68
2023/10/25 06:15:54;;;;;;;12.40;8.90;;;;;;;;;;5018550;28;20060;-68
2023/10/25 06:18:20;;;;;;;11.35;8.73;;;;;;;;;;5036147;28;20029;-68
2023/10/25 06:20:46;;;;;;;11.68;9.60;;;;;;;;;;5036071;28;20017;-68
2023/10/25 06:23:12;;;;;;;8.85;7.53;;;;;;;;;;5036061;28;20022;-68
2023/10/25 06:25:38;;;;;;;12.90;9.75;;;;;;;;;;5035722;28;20091;-69
2023/10/25 06:28:04;;;;;;;10.10;8.65;;;;;;;;;;5036032;28;20033;-68
2023/10/25 06:30:30;;;;;;;10.05;7.63;;;;;;;;;;5018007;28;20032;-69
2023/10/25 06:32:59;;;;;;;11.95;9.45;;;;;;;;;;5016440;28;20026;-68
2023/10/25 06:35:24;;;;;;;10.00;7.65;;;;;;;;;;4994154;28;20080;-68
2023/10/25 06:37:50;;;;;;;9.45;7.53;;;;;;;;;;5014927;28;20033;-63
2023/10/25 06:40:15;;;;;;;10.73;9.07;;;;;;;;;;5015966;28;20034;-69
2023/10/25 06:42:41;;;;;;;11.05;9.35;;;;;;;;;;5016086;28;20030;-69
2023/10/25 06:45:11;;;;;;;9.77;8.13;;;;;;;;;;4997821;28;20038;-69
2023/10/25 06:47:37;;;;;;;8.85;6.72;;;;;;;;;;4997833;28;20026;-70
2023/10/25 06:50:03;;;;;;;9.93;7.85;;;;;;;;;;5015267;28;20040;-70
2023/10/25 06:52:29;;;;;;;9.02;7.72;;;;;;;;;;5015017;28;20034;-70
2023/10/25 06:54:55;;;;;;;7.88;6.82;;;;;;;;;;5015523;28;20026;-70
2023/10/25 06:57:21;;;;;;;3.58;3.35;;;;;;;;;;5015447;28;20054;-70
2023/10/25 06:59:46;;;;;;;7.22;6.47;;;;;;;;;;5015371;28;20057;-70
2023/10/25 07:02:32;;;;;;;9.32;7.03;;;;;;;;;;4997503;28;20057;-69
2023/10/25 07:05:07;;;;;;;7.43;6.70;;;;;;;;;;5028398;28;20134;-69
2023/10/25 07:07:33;;;;;;;6.60;5.65;;;;;;;;;;5034727;28;20056;-69
2023/10/25 07:09:59;;;;;;;6.18;5.57;;;;;;;;;;5034254;28;20449;-70
2023/10/25 07:12:24;;;;;;;5.32;4.82;;;;;;;;;;5033432;28;20391;-70
2023/10/25 07:14:51;;;;;;;5.60;5.15;;;;;;;;;;5034686;28;20033;-69
2023/10/25 07:17:17;;;;;;;5.65;5.15;;;;;;;;;;5034527;28;20025;-69
2023/10/25 07:19:43;;;;;;;5.43;5.03;;;;;;;;;;5034711;28;20017;-69
2023/10/25 07:22:09;;;;;;;5.20;4.68;;;;;;;;;;5034534;28;20048;-70
2023/10/25 07:24:35;;;;;;;4.80;4.40;;;;;;;;;;5034487;28;20033;-70
2023/10/25 07:27:00;;;;;;;5.32;4.82;;;;;;;;;;5034287;28;20034;-65
2023/10/25 07:29:26;;;;;;;5.35;4.85;;;;;;;;;;5033882;28;20027;-65
2023/10/25 07:31:52;;;;;;;4.13;3.83;;;;;;;;;;5032944;28;20503;-65
2023/10/25 07:34:17;;;;;;;7.82;4.60;;;;;;;;;;5034860;28;20021;-65
2023/10/25 07:36:43;;;;;;;3.78;3.50;;;;;;;;;;5034460;28;20128;-69
2023/10/25 07:39:08;;;;;;;2.67;2.05;;;;;;;;;;5033444;28;20034;-70
2023/10/25 07:41:33;;;;;;;4.03;3.72;;;;;;;;;;5034277;28;20431;-69
2023/10/25 07:44:00;;;;;;;4.30;3.90;;;;;;;;;;5034307;28;20101;-70
2023/10/25 07:46:26;;;;;;;4.13;3.75;;;;;;;;;;5034403;28;20079;-69
2023/10/25 07:48:51;;;;;;;4.55;4.15;;;;;;;;;;5035017;28;20026;-69
2023/10/25 07:51:17;;;;;;;6.10;4.47;;;;;;;;;;5034601;28;20112;-69
2023/10/25 07:53:42;;;;;;;5.20;4.70;;;;;;;;;;5033921;28;20116;-69
2023/10/25 07:56:08;;;;;;;5.20;4.70;;;;;;;;;;5033075;28;20033;-69
2023/10/25 07:58:33;;;;;;;4.63;4.22;;;;;;;;;;5033320;28;20033;-69
2023/10/25 08:00:58;;;;;;;5.10;4.70;;;;;;;;;;5034656;28;20022;-70
2023/10/25 08:03:26;;;;;;;4.80;4.07;;;;;;;;;;5033940;28;20049;-69
2023/10/25 08:05:51;;;;;;;6.20;5.07;;;;;;;;;;5034552;28;20377;-69
2023/10/25 08:08:17;;;;;;;5.90;5.30;;;;;;;;;;5032695;28;20018;-69
2023/10/25 08:10:42;;;;;;;6.55;5.70;;;;;;;;;;5033884;28;20033;-69
2023/10/25 08:13:08;;;;;;;6.95;5.22;;;;;;;;;;5033761;28;20521;-69
2023/10/25 08:15:36;;;;;;;6.80;6.10;;;;;;;;;;5032847;28;20029;-69
2023/10/25 08:18:01;;;;;;;8.43;5.50;;;;;;;;;;5031843;28;20034;-70
2023/10/25 08:20:27;;;;;;;8.98;7.10;;;;;;;;;;5032326;28;20037;-70
2023/10/25 08:22:52;;;;;;;8.73;7.03;;;;;;;;;;5031727;28;20037;-70
2023/10/25 08:25:18;;;;;;;8.45;7.45;;;;;;;;;;5032004;28;20025;-70
2023/10/25 08:27:43;;;;;;;9.15;8.00;;;;;;;;;;5030166;28;20473;-69
2023/10/25 08:30:08;;;;;;;7.32;6.55;;;;;;;;;;5032125;28;20044;-69
2023/10/25 08:32:34;;;;;;;6.80;6.10;;;;;;;;;;5031802;28;20483;-69
2023/10/25 08:34:59;;;;;;;7.53;6.60;;;;;;;;;;5030472;28;20055;-70
2023/10/25 08:37:24;;;;;;;8.30;7.00;;;;;;;;;;5033011;28;20014;-69
2023/10/25 08:39:50;;;;;;;7.60;6.90;;;;;;;;;;5032323;28;20025;-70
2023/10/25 08:42:15;;;;;;;8.98;7.07;;;;;;;;;;5033991;28;20041;-69
2023/10/25 08:44:41;;;;;;;8.90;7.25;;;;;;;;;;5033495;28;20105;-70
2023/10/25 08:47:09;;;;;;;8.15;7.32;;;;;;;;;;5033260;28;20029;-70
2023/10/25 08:49:34;;;;;;;7.90;6.53;;;;;;;;;;5033672;28;20026;-69
2023/10/25 08:52:01;;;;;;;7.43;6.47;;;;;;;;;;5033370;28;20033;-70
2023/10/25 08:54:28;;;;;;;7.50;6.35;;;;;;;;;;5032772;28;20041;-70
2023/10/25 08:56:53;;;;;;;5.85;5.32;;;;;;;;;;5033587;28;20033;-70
2023/10/25 08:59:19;;;;;;;8.20;6.28;;;;;;;;;;5033346;28;20037;-70
2023/10/25 09:01:44;;;;;;;6.10;5.47;;;;;;;;;;5033814;28;20087;-70
2023/10/25 09:04:10;;;;;;;6.45;5.80;;;;;;;;;;5032958;28;20124;-70
2023/10/25 09:06:35;;;;;;;6.55;4.97;;;;;;;;;;5033871;28;20033;-70
2023/10/25 09:09:05;;;;;;;7.00;6.20;;;;;;;;;;5033436;28;20034;-70
2023/10/25 09:11:46;;;;;;;5.75;5.22;;;;;;;;;;5016006;28;20457;-65
2023/10/25 09:14:13;;;;;;;5.82;5.28;;;;;;;;;;5016724;28;20033;-70
2023/10/25 09:16:41;;;;;;;8.20;6.47;;;;;;;;;;5056604;23;20056;-66
2023/10/25 09:19:06;;;;;;;5.80;5.22;;;;;;;;;;5056014;22;20065;-66
2023/10/25 09:21:32;;;;;;;6.50;5.32;;;;;;;;;;5070956;23;20423;-70
2023/10/25 09:23:59;;;;;;;6.78;5.68;;;;;;;;;;5057746;23;20059;-70
2023/10/25 09:26:25;;;;;;;6.28;5.43;;;;;;;;;;5073367;28;20082;-70
2023/10/25 09:28:53;;;;;;;7.03;5.78;;;;;;;;;;5073028;28;20017;-70
2023/10/25 09:31:20;;;;;;;7.72;6.78;;;;;;;;;;5055325;28;20043;-69
2023/10/25 09:33:46;;;;;;;7.10;6.40;;;;;;;;;;5073101;28;20060;-69
2023/10/25 09:36:12;;;;;;;7.32;6.63;;;;;;;;;;5073113;28;20506;-69
2023/10/25 09:38:38;;;;;;;6.45;5.80;;;;;;;;;;5072954;28;20064;-70
2023/10/25 09:41:03;;;;;;;7.75;6.05;;;;;;;;;;5075527;28;20064;-70
2023/10/25 09:43:29;;;;;;;7.28;6.18;;;;;;;;;;5076485;28;20080;-70
2023/10/25 09:45:57;;;;;;;8.75;6.70;;;;;;;;;;5092037;28;20036;-69
2023/10/25 09:48:22;;;;;;;8.13;6.40;;;;;;;;;;5076459;28;20032;-69
2023/10/25 09:50:54;;;;;;;10.88;7.03;;;;;;;;;;5076259;28;20471;-70
2023/10/25 09:53:31;;;;;;;9.52;7.55;;;;;;;;;;5075602;28;20112;-69
2023/10/25 09:56:03;;;;;;;10.38;6.93;;;;;;;;;;5057115;28;20443;-69
2023/10/25 09:58:30;;;;;;;8.27;6.70;;;;;;;;;;5057457;28;20094;-69
2023/10/25 10:00:56;;;;;;;9.63;7.05;;;;;;;;;;5075389;28;20124;-70
2023/10/25 10:03:35;;;;;;;12.02;7.43;;;;;;;;;;5074107;28;20032;-70
2023/10/25 10:06:03;;;;;;;8.27;6.15;;;;;;;;;;5075374;28;20031;-70
2023/10/25 10:08:38;;;;;;;10.40;7.60;;;;;;;;;;5076586;28;20475;-69
2023/10/25 10:11:05;;;;;;;12.48;8.30;;;;;;;;;;5076299;28;20455;-69
2023/10/25 10:13:30;;;;;;;13.27;9.38;;;;;;;;;;5075953;28;20032;-70
2023/10/25 10:15:56;;;;;;;12.50;8.95;;;;;;;;;;5076172;28;20089;-69
2023/10/25 10:18:21;;;;;;;15.27;10.02;;;;;;;;;;5076222;28;20020;-70
2023/10/25 10:20:57;;;;;;;13.23;9.40;;;;;;;;;;5075381;28;20033;-70
2023/10/25 10:23:32;;;;;;;13.82;9.30;;;;;;;;;;5075703;28;20040;-69
2023/10/25 10:25:57;;;;;;;14.50;10.18;;;;;;;;;;5075964;28;20036;-70
2023/10/25 10:28:55;;;;;;;18.77;10.02;;;;;;;;;;5058164;28;20025;-70
2023/10/25 10:31:20;;;;;;;13.55;9.65;;;;;;;;;;5052742;28;20464;-69
2023/10/25 10:33:48;;;;;;;13.98;9.68;;;;;;;;;;5075533;28;20020;-69
2023/10/25 10:36:24;;;;;;;12.95;9.00;;;;;;;;;;5075818;28;20024;-70
2023/10/25 10:39:09;;;;;;;13.20;9.55;;;;;;;;;;5076154;28;20043;-69
2023/10/25 10:41:34;;;;;;;11.00;7.13;;;;;;;;;;5075603;28;20045;-69
2023/10/25 10:44:00;;;;;;;13.38;9.63;;;;;;;;;;5074659;28;20016;-69
2023/10/25 10:46:28;;;;;;;15.35;9.93;;;;;;;;;;5075019;28;20044;-69
2023/10/25 10:48:55;;;;;;;14.80;10.73;;;;;;;;;;5075353;28;20036;-70
2023/10/25 10:51:20;;;;;;;14.23;10.60;;;;;;;;;;5075111;28;20067;-70
2023/10/25 10:53:46;;;;;;;13.55;10.68;;;;;;;;;;5075315;28;20109;-69
2023/10/25 10:56:11;;;;;;;12.90;8.88;;;;;;;;;;5075319;28;20032;-69
2023/10/25 10:58:37;;;;;;;14.15;11.20;;;;;;;;;;5075856;28;20036;-69
2023/10/25 11:01:02;;;;;;;14.32;9.95;;;;;;;;;;5075584;28;20017;-69
2023/10/25 11:03:28;;;;;;;11.70;8.95;;;;;;;;;;5057061;28;20375;-69
2023/10/25 11:05:53;;;;;;;15.63;10.82;;;;;;;;;;5057198;28;20025;-69
2023/10/25 11:08:21;;;;;;;15.38;9.30;;;;;;;;;;5075758;28;20043;-69
2023/10/25 11:10:46;;;;;;;13.15;9.60;;;;;;;;;;5075406;28;20036;-69
2023/10/25 11:13:11;;;;;;;13.90;9.63;;;;;;;;;;5074766;28;20115;-69
2023/10/25 11:15:38;;;;;;;12.15;9.40;;;;;;;;;;5075323;28;20054;-69
2023/10/25 11:18:07;;;;;;;10.07;8.27;;;;;;;;;;5075285;28;20020;-69
2023/10/25 11:20:34;;;;;;;10.73;8.40;;;;;;;;;;5056784;28;20032;-69
2023/10/25 11:23:02;;;;;;;10.30;8.45;;;;;;;;;;5056117;28;20037;-69
2023/10/25 11:25:29;;;;;;;8.88;7.07;;;;;;;;;;5074416;28;20027;-69
2023/10/25 11:27:56;;;;;;;9.55;7.15;;;;;;;;;;5074456;28;20093;-69
2023/10/25 11:30:21;;;;;;;7.25;6.20;;;;;;;;;;5056568;28;20494;-69
2023/10/25 11:32:48;;;;;;;9.77;6.75;;;;;;;;;;5074393;28;20067;-69
2023/10/25 11:35:23;;;;;;;6.70;6.00;;;;;;;;;;5074292;28;20016;-69
2023/10/25 11:37:51;;;;;;;8.75;5.75;;;;;;;;;;5073799;28;20036;-70
2023/10/25 11:40:16;;;;;;;7.05;5.60;;;;;;;;;;5073870;28;20035;-69
2023/10/25 11:42:44;;;;;;;8.93;6.38;;;;;;;;;;5073792;28;20005;-69
2023/10/25 11:45:10;;;;;;;7.75;6.10;;;;;;;;;;5073904;28;20456;-69
2023/10/25 11:47:38;;;;;;;6.40;5.35;;;;;;;;;;5073968;28;20029;-70
2023/10/25 11:50:03;;;;;;;5.75;4.80;;;;;;;;;;5073959;28;20379;-69
2023/10/25 11:52:32;;;;;;;8.43;4.75;;;;;;;;;;5073930;28;20044;-69
2023/10/25 11:54:58;;;;;;;5.47;4.72;;;;;;;;;;5055958;28;20091;-69
2023/10/25 11:57:30;;;;;;;4.20;3.90;;;;;;;;;;5073277;28;20032;-69
2023/10/25 11:59:56;;;;;;;4.47;4.18;;;;;;;;;;5073813;28;20037;-70
2023/10/25 12:02:22;;;;;;;3.83;3.53;;;;;;;;;;5073163;28;20089;-70
2023/10/25 12:04:48;;;;;;;3.83;3.53;;;;;;;;;;5073880;28;20039;-70
2023/10/25 12:07:14;;;;;;;9.70;6.60;;;;;;;;;;5072475;28;20099;-70
2023/10/25 12:09:41;;;;;;;3.40;3.10;;;;;;;;;;5072221;28;20031;-70
2023/10/25 12:12:07;;;;;;;3.28;2.97;;;;;;;;;;5072812;28;20112;-70
2023/10/25 12:14:32;;;;;;;5.45;2.90;;;;;;;;;;5071954;28;20067;-70
2023/10/25 12:16:58;;;;;;;2.67;2.08;;;;;;;;;;5072233;28;20163;-70
2023/10/25 12:19:26;;;;;;;4.53;2.30;;;;;;;;;;5072304;28;20046;-70
2023/10/25 12:21:55;;;;;;;3.53;2.97;;;;;;;;;;5072376;28;20036;-70
2023/10/25 12:24:24;;;;;;;5.18;2.83;;;;;;;;;;5072115;28;20025;-70
2023/10/25 12:26:50;;;;;;;4.32;2.97;;;;;;;;;;5072183;28;20021;-70
2023/10/25 12:29:15;;;;;;;3.10;2.80;;;;;;;;;;5072149;28;20507;-66
2023/10/25 12:31:43;;;;;;;4.30;2.75;;;;;;;;;;5072262;28;20360;-66
2023/10/25 12:34:08;;;;;;;2.97;2.63;;;;;;;;;;5072763;28;20032;-65
2023/10/25 12:36:34;;;;;;;3.45;2.72;;;;;;;;;;5055258;28;20064;-66
2023/10/25 12:38:59;;;;;;;3.72;3.00;;;;;;;;;;5072876;28;20059;-66
2023/10/25 12:41:25;;;;;;;2.55;2.45;;;;;;;;;;5072992;28;20116;-66
2023/10/25 12:43:50;;;;;;;2.58;2.35;;;;;;;;;;5073169;28;20028;-65
2023/10/25 12:46:18;;;;;;;3.47;3.10;;;;;;;;;;5072955;28;20024;-66
2023/10/25 12:48:43;;;;;;;3.47;2.83;;;;;;;;;;5072424;28;20044;-69
2023/10/25 12:51:09;;;;;;;2.88;2.58;;;;;;;;;;5072865;28;20024;-70
2023/10/25 12:53:34;;;;;;;3.28;3.08;;;;;;;;;;5073300;28;20384;-70
2023/10/25 12:56:00;;;;;;;3.08;2.78;;;;;;;;;;5072718;28;20032;-69
2023/10/25 12:58:25;;;;;;;2.80;2.60;;;;;;;;;;5072378;28;20020;-70
2023/10/25 13:00:51;;;;;;;4.97;3.75;;;;;;;;;;5054799;28;20154;-70
2023/10/25 13:03:17;;;;;;;4.95;3.20;;;;;;;;;;5072928;28;20032;-70
2023/10/25 13:05:43;;;;;;;3.72;3.42;;;;;;;;;;5071997;28;20021;-70
2023/10/25 13:08:09;;;;;;;3.38;3.03;;;;;;;;;;5071831;28;20075;-70
2023/10/25 13:10:35;;;;;;;3.60;3.30;;;;;;;;;;5072137;28;20178;-70
2023/10/25 13:13:00;;;;;;;3.20;2.83;;;;;;;;;;5071870;28;20060;-70
2023/10/25 13:15:26;;;;;;;3.47;3.17;;;;;;;;;;5076374;28;20039;-69
2023/10/25 13:17:51;;;;;;;3.10;2.78;;;;;;;;;;5076483;28;20056;-70
2023/10/25 13:20:17;;;;;;;2.97;2.78;;;;;;;;;;5076612;28;20434;-70
2023/10/25 13:22:43;;;;;;;2.90;2.65;;;;;;;;;;5076050;28;20036;-70
2023/10/25 13:25:08;;;;;;;3.25;3.00;;;;;;;;;;5076463;28;20553;-70
2023/10/25 13:27:35;;;;;;;3.35;3.15;;;;;;;;;;5076602;28;20052;-72
2023/10/25 13:30:02;;;;;;;4.00;2.88;;;;;;;;;;5075745;28;20021;-66
2023/10/25 13:32:28;;;;;;;3.25;3.00;;;;;;;;;;5076372;28;20497;-65
2023/10/25 13:34:53;;;;;;;2.92;2.70;;;;;;;;;;5076341;28;20056;-66
2023/10/25 13:37:20;;;;;;;3.40;3.20;;;;;;;;;;5058267;28;20044;-66
2023/10/25 13:39:46;;;;;;;3.35;3.00;;;;;;;;;;5075345;28;20040;-66
2023/10/25 13:42:12;;;;;;;4.03;3.25;;;;;;;;;;5075620;28;20031;-66
2023/10/25 13:44:37;;;;;;;4.35;3.38;;;;;;;;;;5075615;28;20407;-66
2023/10/25 13:47:02;;;;;;;4.50;3.58;;;;;;;;;;5057895;28;20364;-66
2023/10/25 13:49:28;;;;;;;4.10;3.55;;;;;;;;;;5075386;28;20095;-66
2023/10/25 13:51:53;;;;;;;3.63;3.33;;;;;;;;;;5074889;28;20257;-66
2023/10/25 13:54:19;;;;;;;5.60;3.25;;;;;;;;;;5055473;28;20495;-66
2023/10/25 13:56:45;;;;;;;3.92;3.45;;;;;;;;;;5073480;28;20032;-66
2023/10/25 13:59:10;;;;;;;5.10;3.50;;;;;;;;;;5073420;28;20525;-66
2023/10/25 14:01:35;;;;;;;4.35;3.00;;;;;;;;;;5073534;28;20458;-66
2023/10/25 14:04:01;;;;;;;2.92;2.70;;;;;;;;;;5055754;28;20044;-66
2023/10/25 14:06:26;;;;;;;4.05;2.45;;;;;;;;;;5074325;28;20474;-65
2023/10/25 14:08:52;;;;;;;2.90;2.60;;;;;;;;;;5074970;28;20024;-65
2023/10/25 14:11:18;;;;;;;2.58;2.03;;;;;;;;;;5057109;28;20454;-65
2023/10/25 14:13:44;;;;;;;2.20;2.00;;;;;;;;;;5075277;28;20063;-65
2023/10/25 14:16:10;;;;;;;2.33;2.05;;;;;;;;;;5074873;28;20395;-65
2023/10/25 14:18:35;;;;;;;2.03;1.92;;;;;;;;;;5074965;28;20028;-66
2023/10/25 14:21:07;;;;;;;2.40;2.20;;;;;;;;;;5075558;28;20016;-66
2023/10/25 14:23:33;;;;;;;2.40;2.00;;;;;;;;;;5075356;28;20068;-66
2023/10/25 14:26:01;;;;;;;2.53;2.00;;;;;;;;;;5056836;28;20063;-66
2023/10/25 14:28:26;;;;;;;3.40;2.20;;;;;;;;;;5075431;28;20038;-66
2023/10/25 14:30:52;;;;;;;3.13;2.20;;;;;;;;;;5075200;28;20036;-65
2023/10/25 14:33:17;;;;;;;2.97;2.00;;;;;;;;;;5056677;28;20023;-66